Atlantida Azul — CSYG2 — position and weather

sailwx.info

Track history (hours):
 
Tides and Currents Weather Stations Pressure Air Temp Water Temp Dewpoint Dewpoint Depression Visibility Wind Speed Wind Dir Waves Ship Positions

Atlantida Azul

Last reported at 2017-Mar-22 09:33 UTC. Time now 2017-Mar-25 11:46 UTC.
Position N 37°57' W 008°52'.

Length 16 m.

Type: Pilot. MMSI: 263672880.

Date/timePositionNaut miles runAvg speedWind from/ knotsBaromVisibWave heightAir tempDewpointWater temp
2017-Mar-22 09:33N 37°57' W 008°52'2 0.5
2017-Mar-22 05:33N 37°56' W 008°50'1 0.3
2017-Mar-22 02:32N 37°56' W 008°51'2 0.2
2017-Mar-21 14:33N 37°57' W 008°53'2 2.0
2017-Mar-21 13:32N 37°56' W 008°51'0 0.0
2017-Mar-21 05:27N 37°56' W 008°51'0 0.3
2017-Mar-21 04:33N 37°56' W 008°51'0 0.2
2017-Mar-21 03:33N 37°56' W 008°51'0 0.4
2017-Mar-21 02:33N 37°56' W 008°51'0 0.0
2017-Mar-20 16:11N 37°56' W 008°51'2 3.2
2017-Mar-20 15:33N 37°57' W 008°53'2 0.1
2017-Mar-19 23:08N 37°56' W 008°51'2 3.2
2017-Mar-19 22:33N 37°57' W 008°53'2 2.0
2017-Mar-19 21:33N 37°56' W 008°51'0 0.2
2017-Mar-19 20:31N 37°56' W 008°51'0 0.3
2017-Mar-19 19:31N 37°56' W 008°51'2 0.1
2017-Mar-18 21:33N 37°55' W 008°50'1 1.2
2017-Mar-18 20:33N 37°56' W 008°51'2 1.6
2017-Mar-18 19:33N 37°55' W 008°52'2 0.1
2017-Mar-18 04:23N 37°56' W 008°51'0 0.3
2017-Mar-18 03:33N 37°56' W 008°51'2 2.2
2017-Mar-18 02:33N 37°57' W 008°53'2 2.0
2017-Mar-18 01:33N 37°56' W 008°51'0 0.0
2017-Mar-18 00:33N 37°56' W 008°51'0 0.0
2017-Mar-17 23:30N 37°56' W 008°51'0 0.5
2017-Mar-17 22:33N 37°56' W 008°51'0 0.1
2017-Mar-17 19:33N 37°56' W 008°51'1 0.8
2017-Mar-17 18:31N 37°56' W 008°51'1 0.7
2017-Mar-17 17:31N 37°56' W 008°51'0 0.3
2017-Mar-17 16:33N 37°56' W 008°51'0 0.3
2017-Mar-17 15:33N 37°56' W 008°51'1 0.1
2017-Mar-17 09:33N 37°56' W 008°52'1 1.3
2017-Mar-17 08:33N 37°57' W 008°53'1 0.4
2017-Mar-17 05:21N 37°57' W 008°52'1 1.6
2017-Mar-17 04:33N 37°57' W 008°53'2 2.1
2017-Mar-17 03:25N 37°56' W 008°51'0 0.2
2017-Mar-17 01:21N 37°56' W 008°51'1 0.5
2017-Mar-16 22:33N 37°56' W 008°53'1 1.4
2017-Mar-16 21:30N 37°56' W 008°51'1 0.6
2017-Mar-16 20:33N 37°56' W 008°51'1 0.5
2017-Mar-16 19:33N 37°56' W 008°51'0 0.1
2017-Mar-16 18:31N 37°56' W 008°51'0 0.0
2017-Mar-16 11:24N 37°56' W 008°51'0 0.5
2017-Mar-16 10:31N 37°56' W 008°51'1 1.2
2017-Mar-16 09:32N 37°57' W 008°52'0 0.0
2017-Mar-16 07:31N 37°57' W 008°52'0 0.0
2017-Mar-16 00:20N 37°57' W 008°52'3 3.2
2017-Mar-15 23:33N 37°54' W 008°50'3 1.7
2017-Mar-15 22:05N 37°57' W 008°52'1 2.0
2017-Mar-15 21:33N 37°57' W 008°53'3 3.4
2017-Mar-15 20:33N 37°54' W 008°51'3 3.2
2017-Mar-15 19:33N 37°57' W 008°53'2 2.3
2017-Mar-15 18:33N 37°56' W 008°51'0 0.1
2017-Mar-15 17:33N 37°56' W 008°51'1 1.0
2017-Mar-15 16:32N 37°56' W 008°52'2 1.5
2017-Mar-15 15:33N 37°57' W 008°53'2 2.0
2017-Mar-15 14:31N 37°56' W 008°51'2 0.7
2017-Mar-15 11:33N 37°56' W 008°54'2 2.1
2017-Mar-15 10:33N 37°56' W 008°51'1 0.2
2017-Mar-15 06:25N 37°57' W 008°52'0 0.0
2017-Mar-15 05:32N 37°57' W 008°52'0 0.0
2017-Mar-15 04:28N 37°57' W 008°52'0 0.0
2017-Mar-15 03:31N 37°57' W 008°52'1 0.9
2017-Mar-15 02:31N 37°56' W 008°51'1 0.2
2017-Mar-14 21:31N 37°57' W 008°52'1 1.0
2017-Mar-14 20:33N 37°56' W 008°51'0 0.1
2017-Mar-14 19:33N 37°56' W 008°51'0 0.1
2017-Mar-14 18:33N 37°56' W 008°51'0 0.0
2017-Mar-14 16:15N 37°56' W 008°51'2 0.9
2017-Mar-14 14:32N 37°57' W 008°53'2 1.6
2017-Mar-14 13:32N 37°56' W 008°51'1 1.1
2017-Mar-14 12:33N 37°56' W 008°52'1 1.2
2017-Mar-14 11:33N 37°56' W 008°53'2 0.1
2017-Mar-13 14:12N 37°56' W 008°51'0 0.5
2017-Mar-13 13:33N 37°56' W 008°51'2 1.8
2017-Mar-13 12:33N 37°57' W 008°53'2 1.6
2017-Mar-13 11:32N 37°56' W 008°51'1 0.8
2017-Mar-13 10:33N 37°56' W 008°50'2 2.2
2017-Mar-13 09:33N 37°57' W 008°52'2 2.4
2017-Mar-13 08:33N 37°55' W 008°50'1 0.8
2017-Mar-13 07:16N 37°56' W 008°51'0 0.4
2017-Mar-13 06:33N 37°56' W 008°51'0 0.0
2017-Mar-12 22:33N 37°56' W 008°51'2 1.9
2017-Mar-12 21:33N 37°57' W 008°53'2 0.9
2017-Mar-12 19:22N 37°56' W 008°51'1 1.5
2017-Mar-12 18:33N 37°55' W 008°50'1 1.2
2017-Mar-12 17:31N 37°56' W 008°51'0 0.5
2017-Mar-12 16:33N 37°56' W 008°51'0 0.1
2017-Mar-12 13:20N 37°56' W 008°51'2 2.4
2017-Mar-12 12:33N 37°57' W 008°53'1 0.6
2017-Mar-12 10:32N 37°57' W 008°52'1 1.1
2017-Mar-12 09:33N 37°56' W 008°52'  
Track history (hours):
 
Tides and Currents Weather Stations Pressure Air Temp Water Temp Dewpoint Dewpoint Depression Visibility Wind Speed Wind Dir Waves Ship Positions

Atlantida Azul

Last reported at 2017-Mar-22 09:33 UTC. Time now 2017-Mar-25 11:46 UTC.
Position N 37°57' W 008°52'.

Length 16 m.

Type: Pilot. MMSI: 263672880.

Date/timePositionNaut miles runAvg speedWind from/ knotsBaromVisibWave heightAir tempDewpointWater temp
2017-Mar-22 09:33N 37°57' W 008°52'2 0.5
2017-Mar-22 05:33N 37°56' W 008°50'1 0.3
2017-Mar-22 02:32N 37°56' W 008°51'2 0.2
2017-Mar-21 14:33N 37°57' W 008°53'2 2.0
2017-Mar-21 13:32N 37°56' W 008°51'0 0.0
2017-Mar-21 05:27N 37°56' W 008°51'0 0.3
2017-Mar-21 04:33N 37°56' W 008°51'0 0.2
2017-Mar-21 03:33N 37°56' W 008°51'0 0.4
2017-Mar-21 02:33N 37°56' W 008°51'0 0.0
2017-Mar-20 16:11N 37°56' W 008°51'2 3.2
2017-Mar-20 15:33N 37°57' W 008°53'2 0.1
2017-Mar-19 23:08N 37°56' W 008°51'2 3.2
2017-Mar-19 22:33N 37°57' W 008°53'2 2.0
2017-Mar-19 21:33N 37°56' W 008°51'0 0.2
2017-Mar-19 20:31N 37°56' W 008°51'0 0.3
2017-Mar-19 19:31N 37°56' W 008°51'2 0.1
2017-Mar-18 21:33N 37°55' W 008°50'1 1.2
2017-Mar-18 20:33N 37°56' W 008°51'2 1.6
2017-Mar-18 19:33N 37°55' W 008°52'2 0.1
2017-Mar-18 04:23N 37°56' W 008°51'0 0.3
2017-Mar-18 03:33N 37°56' W 008°51'2 2.2
2017-Mar-18 02:33N 37°57' W 008°53'2 2.0
2017-Mar-18 01:33N 37°56' W 008°51'0 0.0
2017-Mar-18 00:33N 37°56' W 008°51'0 0.0
2017-Mar-17 23:30N 37°56' W 008°51'0 0.5
2017-Mar-17 22:33N 37°56' W 008°51'0 0.1
2017-Mar-17 19:33N 37°56' W 008°51'1 0.8
2017-Mar-17 18:31N 37°56' W 008°51'1 0.7
2017-Mar-17 17:31N 37°56' W 008°51'0 0.3
2017-Mar-17 16:33N 37°56' W 008°51'0 0.3
2017-Mar-17 15:33N 37°56' W 008°51'1 0.1
2017-Mar-17 09:33N 37°56' W 008°52'1 1.3
2017-Mar-17 08:33N 37°57' W 008°53'1 0.4
2017-Mar-17 05:21N 37°57' W 008°52'1 1.6
2017-Mar-17 04:33N 37°57' W 008°53'2 2.1
2017-Mar-17 03:25N 37°56' W 008°51'0 0.2
2017-Mar-17 01:21N 37°56' W 008°51'1 0.5
2017-Mar-16 22:33N 37°56' W 008°53'1 1.4
2017-Mar-16 21:30N 37°56' W 008°51'1 0.6
2017-Mar-16 20:33N 37°56' W 008°51'1 0.5
2017-Mar-16 19:33N 37°56' W 008°51'0 0.1
2017-Mar-16 18:31N 37°56' W 008°51'0 0.0
2017-Mar-16 11:24N 37°56' W 008°51'0 0.5
2017-Mar-16 10:31N 37°56' W 008°51'1 1.2
2017-Mar-16 09:32N 37°57' W 008°52'0 0.0
2017-Mar-16 07:31N 37°57' W 008°52'0 0.0
2017-Mar-16 00:20N 37°57' W 008°52'3 3.2
2017-Mar-15 23:33N 37°54' W 008°50'3 1.7
2017-Mar-15 22:05N 37°57' W 008°52'1 2.0
2017-Mar-15 21:33N 37°57' W 008°53'3 3.4
2017-Mar-15 20:33N 37°54' W 008°51'3 3.2
2017-Mar-15 19:33N 37°57' W 008°53'2 2.3
2017-Mar-15 18:33N 37°56' W 008°51'0 0.1
2017-Mar-15 17:33N 37°56' W 008°51'1 1.0
2017-Mar-15 16:32N 37°56' W 008°52'2 1.5
2017-Mar-15 15:33N 37°57' W 008°53'2 2.0
2017-Mar-15 14:31N 37°56' W 008°51'2 0.7
2017-Mar-15 11:33N 37°56' W 008°54'2 2.1
2017-Mar-15 10:33N 37°56' W 008°51'1 0.2
2017-Mar-15 06:25N 37°57' W 008°52'0 0.0
2017-Mar-15 05:32N 37°57' W 008°52'0 0.0
2017-Mar-15 04:28N 37°57' W 008°52'0 0.0
2017-Mar-15 03:31N 37°57' W 008°52'1 0.9
2017-Mar-15 02:31N 37°56' W 008°51'1 0.2
2017-Mar-14 21:31N 37°57' W 008°52'1 1.0
2017-Mar-14 20:33N 37°56' W 008°51'0 0.1
2017-Mar-14 19:33N 37°56' W 008°51'0 0.1
2017-Mar-14 18:33N 37°56' W 008°51'0 0.0
2017-Mar-14 16:15N 37°56' W 008°51'2 0.9
2017-Mar-14 14:32N 37°57' W 008°53'2 1.6
2017-Mar-14 13:32N 37°56' W 008°51'1 1.1
2017-Mar-14 12:33N 37°56' W 008°52'1 1.2
2017-Mar-14 11:33N 37°56' W 008°53'2 0.1
2017-Mar-13 14:12N 37°56' W 008°51'0 0.5
2017-Mar-13 13:33N 37°56' W 008°51'2 1.8
2017-Mar-13 12:33N 37°57' W 008°53'2 1.6
2017-Mar-13 11:32N 37°56' W 008°51'1 0.8
2017-Mar-13 10:33N 37°56' W 008°50'2 2.2
2017-Mar-13 09:33N 37°57' W 008°52'2 2.4
2017-Mar-13 08:33N 37°55' W 008°50'1 0.8
2017-Mar-13 07:16N 37°56' W 008°51'0 0.4
2017-Mar-13 06:33N 37°56' W 008°51'0 0.0
2017-Mar-12 22:33N 37°56' W 008°51'2 1.9
2017-Mar-12 21:33N 37°57' W 008°53'2 0.9
2017-Mar-12 19:22N 37°56' W 008°51'1 1.5
2017-Mar-12 18:33N 37°55' W 008°50'1 1.2
2017-Mar-12 17:31N 37°56' W 008°51'0 0.5
2017-Mar-12 16:33N 37°56' W 008°51'0 0.1
2017-Mar-12 13:20N 37°56' W 008°51'2 2.4
2017-Mar-12 12:33N 37°57' W 008°53'1 0.6
2017-Mar-12 10:32N 37°57' W 008°52'1 1.1
2017-Mar-12 09:33N 37°56' W 008°52'  

Dump ship's entire track history